createdAt,value
2023-05-10T00:00:07.809Z,6.30
2023-05-10T00:00:53.486Z,6.30
2023-05-10T00:01:26.595Z,6.30
2023-05-10T00:01:59.829Z,6.29
2023-05-10T00:02:33.015Z,6.29
2023-05-10T00:03:06.581Z,6.29
2023-05-10T00:03:40.081Z,6.28
2023-05-10T00:04:13.250Z,6.27
2023-05-10T00:04:46.455Z,6.27
2023-05-10T00:05:19.784Z,6.27
2023-05-10T00:05:53.022Z,6.26
2023-05-10T00:06:26.298Z,6.26
2023-05-10T00:06:59.456Z,6.26
2023-05-10T00:07:32.505Z,6.25
2023-05-10T00:08:05.712Z,6.26
2023-05-10T00:08:38.995Z,6.25
2023-05-10T00:09:12.178Z,6.24
2023-05-10T00:09:45.487Z,6.25
2023-05-10T00:10:18.859Z,6.24
2023-05-10T00:10:53.526Z,6.24
2023-05-10T00:11:26.722Z,6.23
2023-05-10T00:12:00.119Z,6.24
2023-05-10T00:12:33.318Z,6.23
2023-05-10T00:13:06.609Z,6.22
2023-05-10T00:13:39.875Z,6.22
2023-05-10T00:14:13.119Z,6.22
2023-05-10T00:14:46.507Z,6.23
2023-05-10T00:15:19.555Z,6.21
2023-05-10T00:15:52.631Z,6.21
2023-05-10T00:16:25.811Z,6.20
2023-05-10T00:16:59.141Z,6.20
2023-05-10T00:17:32.401Z,6.19
2023-05-10T00:18:05.567Z,6.18
2023-05-10T00:18:38.740Z,6.18
2023-05-10T00:19:12.088Z,6.17
2023-05-10T00:19:45.324Z,6.17
2023-05-10T00:20:18.742Z,6.16
2023-05-10T00:20:52.152Z,6.15
2023-05-10T00:21:25.402Z,6.15
2023-05-10T00:21:58.608Z,6.14
2023-05-10T00:22:32.066Z,6.14
2023-05-10T00:23:05.273Z,6.13
2023-05-10T00:23:38.751Z,6.13
2023-05-10T00:24:12.032Z,6.12
2023-05-10T00:24:45.434Z,6.12
2023-05-10T00:25:18.686Z,6.11
2023-05-10T00:25:51.994Z,6.11
2023-05-10T00:26:25.191Z,6.10
2023-05-10T00:26:58.387Z,6.09
2023-05-10T00:27:31.516Z,6.08
2023-05-10T00:28:04.934Z,6.09
2023-05-10T00:28:37.930Z,6.07
2023-05-10T00:29:11.072Z,6.06
2023-05-10T00:29:44.133Z,6.07
2023-05-10T00:30:17.449Z,6.06
2023-05-10T00:30:50.852Z,6.05
2023-05-10T00:31:24.049Z,6.05
2023-05-10T00:31:57.526Z,6.05
2023-05-10T00:32:30.512Z,6.04
2023-05-10T00:33:04.255Z,6.04
2023-05-10T00:33:37.583Z,6.03
2023-05-10T00:34:10.639Z,6.03
2023-05-10T00:34:43.876Z,6.02
2023-05-10T00:35:17.274Z,6.02
2023-05-10T00:35:50.503Z,6.02
2023-05-10T00:36:23.731Z,6.01
2023-05-10T00:36:57.389Z,6.00
2023-05-10T00:37:30.831Z,6.00
2023-05-10T00:38:04.069Z,6.00
2023-05-10T00:38:37.250Z,5.99
2023-05-10T00:39:10.335Z,5.99
2023-05-10T00:39:43.502Z,5.98
2023-05-10T00:40:16.939Z,5.97
2023-05-10T00:40:50.371Z,5.96
2023-05-10T00:41:23.944Z,5.95
2023-05-10T00:41:57.189Z,5.95
2023-05-10T00:42:30.220Z,5.94
2023-05-10T00:43:03.356Z,5.93
2023-05-10T00:43:36.927Z,5.93
2023-05-10T00:44:10.291Z,5.92
2023-05-10T00:44:43.548Z,5.90
2023-05-10T00:45:17.055Z,5.89
2023-05-10T00:45:50.887Z,5.90
2023-05-10T00:46:24.564Z,5.89
2023-05-10T00:46:57.664Z,5.88
2023-05-10T00:47:31.005Z,5.88
2023-05-10T00:48:05.039Z,5.86
2023-05-10T00:48:38.307Z,5.86
2023-05-10T00:49:11.642Z,5.86
2023-05-10T00:49:45.291Z,5.86
2023-05-10T00:50:18.769Z,5.86
2023-05-10T00:50:52.136Z,5.85
2023-05-10T00:51:25.598Z,5.85
2023-05-10T00:51:58.883Z,5.85
2023-05-10T00:52:32.453Z,5.84
2023-05-10T00:53:05.760Z,5.85
2023-05-10T00:53:39.093Z,5.84
2023-05-10T00:54:12.937Z,5.85
2023-05-10T00:54:46.228Z,5.84
2023-05-10T00:55:19.701Z,5.84
2023-05-10T00:55:52.944Z,5.83
2023-05-10T00:56:26.687Z,5.82
2023-05-10T00:56:59.999Z,5.83
2023-05-10T00:57:33.168Z,5.82
2023-05-10T00:58:06.808Z,5.83
2023-05-10T00:58:41.128Z,5.82
2023-05-10T00:59:14.183Z,5.83
2023-05-10T00:59:47.469Z,5.82
2023-05-10T01:00:20.936Z,5.82
2023-05-10T01:00:54.732Z,5.83
2023-05-10T01:01:29.068Z,5.83
2023-05-10T01:02:02.872Z,5.83
2023-05-10T01:02:36.580Z,5.83
2023-05-10T01:03:10.818Z,5.83
2023-05-10T01:03:43.994Z,5.82
2023-05-10T01:04:17.245Z,5.82
2023-05-10T01:04:50.739Z,5.82
2023-05-10T01:05:24.082Z,5.82
2023-05-10T01:05:57.177Z,5.82
2023-05-10T01:06:30.396Z,5.82
2023-05-10T01:07:03.703Z,5.82
2023-05-10T01:07:37.039Z,5.80
2023-05-10T01:08:10.253Z,5.80
2023-05-10T01:08:43.641Z,5.80
2023-05-10T01:09:16.907Z,5.80
2023-05-10T01:09:50.075Z,5.80
2023-05-10T01:10:23.466Z,5.81
2023-05-10T01:10:56.693Z,5.80
2023-05-10T01:11:30.172Z,5.80
2023-05-10T01:12:04.126Z,5.80
2023-05-10T01:12:38.927Z,5.80
2023-05-10T01:13:12.561Z,5.79
2023-05-10T01:13:47.630Z,5.79
2023-05-10T01:14:21.530Z,5.79
2023-05-10T01:14:54.914Z,5.79
2023-05-10T01:15:28.095Z,5.78
2023-05-10T01:16:04.492Z,5.78
2023-05-10T01:16:39.381Z,5.78
2023-05-10T01:17:13.398Z,5.78
2023-05-10T01:17:48.437Z,5.77
2023-05-10T01:18:22.681Z,5.77
2023-05-10T01:18:55.880Z,5.76
2023-05-10T01:19:32.637Z,5.75
2023-05-10T01:20:06.492Z,5.75
2023-05-10T01:20:44.591Z,5.74
2023-05-10T01:21:20.782Z,5.73
2023-05-10T01:22:12.551Z,5.73
2023-05-10T01:22:52.036Z,5.72
2023-05-10T01:23:45.969Z,5.72
2023-05-10T01:24:18.919Z,5.70
2023-05-10T01:25:10.926Z,5.70
2023-05-10T01:26:02.503Z,5.70
2023-05-10T01:26:47.690Z,5.69
2023-05-10T01:27:21.056Z,5.69
2023-05-10T01:28:00.087Z,5.68
2023-05-10T01:28:51.732Z,5.68
2023-05-10T01:29:34.282Z,5.66
2023-05-10T01:30:15.449Z,5.66
2023-05-10T01:30:52.665Z,5.66
2023-05-10T01:31:25.924Z,5.64
2023-05-10T01:32:17.804Z,5.63
2023-05-10T01:32:51.738Z,5.62
2023-05-10T01:33:43.575Z,5.62
2023-05-10T01:34:24.055Z,5.61
2023-05-10T01:35:03.078Z,5.61
2023-05-10T01:35:36.228Z,5.60
2023-05-10T01:36:28.113Z,5.59
2023-05-10T01:37:07.185Z,5.58
2023-05-10T01:37:58.202Z,5.58
2023-05-10T01:38:38.628Z,5.58
2023-05-10T01:39:11.863Z,5.57
2023-05-10T01:39:53.820Z,5.57
2023-05-10T01:40:32.967Z,5.56
2023-05-10T01:41:14.390Z,5.56
2023-05-10T01:41:47.576Z,5.55
2023-05-10T01:42:28.385Z,5.54
2023-05-10T01:43:03.917Z,5.53
2023-05-10T01:43:46.363Z,5.54
2023-05-10T01:44:26.025Z,5.53
2023-05-10T01:45:13.880Z,5.53
2023-05-10T01:46:01.118Z,5.51
2023-05-10T01:46:39.789Z,5.51
2023-05-10T01:47:15.731Z,5.49
2023-05-10T01:47:54.822Z,5.50
2023-05-10T01:48:29.896Z,5.49
2023-05-10T01:49:03.802Z,5.47
2023-05-10T01:49:41.173Z,5.48
2023-05-10T01:50:19.471Z,5.48
2023-05-10T01:50:53.518Z,5.47
2023-05-10T01:51:28.853Z,5.48
2023-05-10T01:52:08.270Z,5.46
2023-05-10T01:52:43.517Z,5.46
2023-05-10T01:53:19.962Z,5.46
2023-05-10T01:53:59.529Z,5.46
2023-05-10T01:54:34.152Z,5.45
2023-05-10T01:55:09.115Z,5.45
2023-05-10T01:55:49.907Z,5.45
2023-05-10T01:56:25.482Z,5.44
2023-05-10T01:57:04.310Z,5.43
2023-05-10T01:57:40.735Z,5.44
2023-05-10T01:58:20.335Z,5.42
2023-05-10T01:58:54.059Z,5.42
2023-05-10T01:59:30.923Z,5.41
2023-05-10T02:00:05.490Z,5.40
2023-05-10T02:00:41.121Z,5.39
2023-05-10T02:01:14.894Z,5.38
2023-05-10T02:01:48.913Z,5.37
2023-05-10T02:02:22.644Z,5.37
2023-05-10T02:02:56.647Z,5.36
2023-05-10T02:03:32.304Z,5.36
2023-05-10T02:04:07.146Z,5.34
2023-05-10T02:04:41.894Z,5.34
2023-05-10T02:05:16.786Z,5.34
2023-05-10T02:05:51.129Z,5.33
2023-05-10T02:06:25.491Z,5.32
2023-05-10T02:06:58.795Z,5.31
2023-05-10T02:07:33.720Z,5.32
2023-05-10T02:08:07.961Z,5.31
2023-05-10T02:08:41.483Z,5.31
2023-05-10T02:09:15.428Z,5.30
2023-05-10T02:09:49.271Z,5.30
2023-05-10T02:10:22.412Z,5.30
2023-05-10T02:10:56.868Z,5.29
2023-05-10T02:11:30.933Z,5.29
2023-05-10T02:12:05.148Z,5.29
2023-05-10T02:12:40.655Z,5.29
2023-05-10T02:13:15.291Z,5.28
2023-05-10T02:13:49.609Z,5.28
2023-05-10T02:14:25.563Z,5.27
2023-05-10T02:15:00.569Z,5.27
2023-05-10T02:15:34.459Z,5.27
2023-05-10T02:16:08.524Z,5.27
2023-05-10T02:16:42.247Z,5.26
2023-05-10T02:17:15.476Z,5.26
2023-05-10T02:17:48.975Z,5.26
2023-05-10T02:18:23.592Z,5.26
2023-05-10T02:18:58.367Z,5.25
2023-05-10T02:19:31.464Z,5.25
2023-05-10T02:20:06.033Z,5.24
2023-05-10T02:20:39.854Z,5.24
2023-05-10T02:21:14.485Z,5.23
2023-05-10T02:21:47.865Z,5.22
2023-05-10T02:22:21.663Z,5.22
2023-05-10T02:22:55.884Z,5.21
2023-05-10T02:23:29.697Z,5.21
2023-05-10T02:24:03.798Z,5.20
2023-05-10T02:24:38.081Z,5.20
2023-05-10T02:25:12.308Z,5.19
2023-05-10T02:25:46.532Z,5.18
2023-05-10T02:26:22.615Z,5.18
2023-05-10T02:26:59.243Z,5.17
2023-05-10T02:27:32.867Z,5.17
2023-05-10T02:28:07.124Z,5.16
2023-05-10T02:28:41.585Z,5.15
2023-05-10T02:29:15.728Z,5.13
2023-05-10T02:29:49.060Z,5.13
2023-05-10T02:30:23.601Z,5.12
2023-05-10T02:30:57.388Z,5.11
2023-05-10T02:31:33.344Z,5.10
2023-05-10T02:32:07.418Z,5.10
2023-05-10T02:32:40.951Z,5.10
2023-05-10T02:33:14.824Z,5.08
2023-05-10T02:33:48.301Z,5.07
2023-05-10T02:34:22.735Z,5.07
2023-05-10T02:34:56.101Z,5.06
2023-05-10T02:35:29.441Z,5.06
2023-05-10T02:36:03.905Z,5.05
2023-05-10T02:36:38.089Z,5.04
2023-05-10T02:37:11.661Z,5.04
2023-05-10T02:37:45.236Z,5.02
2023-05-10T02:38:20.611Z,5.02
2023-05-10T02:38:54.476Z,5.01
2023-05-10T02:39:29.768Z,5.00
2023-05-10T02:40:04.619Z,5.00
2023-05-10T02:40:38.101Z,5.00
2023-05-10T02:41:12.329Z,5.00
2023-05-10T02:41:47.368Z,4.99
2023-05-10T02:42:24.754Z,5.00
2023-05-10T02:42:59.913Z,4.99
2023-05-10T02:43:33.830Z,4.98
2023-05-10T02:44:07.992Z,4.98
2023-05-10T02:44:42.417Z,4.98
2023-05-10T02:45:18.744Z,4.98
2023-05-10T02:45:52.294Z,4.97
2023-05-10T02:46:25.439Z,4.96
2023-05-10T02:46:59.756Z,4.97
2023-05-10T02:47:33.035Z,4.96
2023-05-10T02:48:06.503Z,4.96
2023-05-10T02:48:39.898Z,4.96
2023-05-10T02:49:13.185Z,4.96
2023-05-10T02:49:46.751Z,4.95
2023-05-10T02:50:20.967Z,4.95
2023-05-10T02:50:56.233Z,4.96
2023-05-10T02:51:32.911Z,4.94
2023-05-10T02:52:08.201Z,4.95
2023-05-10T02:52:47.484Z,4.95
2023-05-10T02:53:23.909Z,4.94
2023-05-10T02:53:58.573Z,4.94
2023-05-10T02:54:34.667Z,4.94
2023-05-10T02:55:10.516Z,4.94
2023-05-10T02:55:46.344Z,4.94
2023-05-10T02:56:26.974Z,4.93
2023-05-10T02:57:01.801Z,4.93
2023-05-10T02:57:35.680Z,4.93
2023-05-10T02:58:08.786Z,4.93
2023-05-10T02:58:42.068Z,4.93
2023-05-10T02:59:15.325Z,4.93
2023-05-10T02:59:48.530Z,4.93
2023-05-10T03:00:21.973Z,4.91
2023-05-10T03:00:55.143Z,4.92
2023-05-10T03:01:28.383Z,4.91
2023-05-10T03:02:01.895Z,4.91
2023-05-10T03:02:35.321Z,4.92
2023-05-10T03:03:08.868Z,4.92
2023-05-10T03:03:42.273Z,4.92
2023-05-10T03:04:15.361Z,4.92
2023-05-10T03:04:48.406Z,4.92
2023-05-10T03:05:21.663Z,4.93
2023-05-10T03:05:59.166Z,4.92
2023-05-10T03:06:32.544Z,4.92
2023-05-10T03:07:06.015Z,4.93
2023-05-10T03:07:39.216Z,4.92
2023-05-10T03:08:12.576Z,4.93
2023-05-10T03:08:46.500Z,4.93
2023-05-10T03:09:21.072Z,4.93
2023-05-10T03:09:54.414Z,4.94
2023-05-10T03:10:28.907Z,4.93
2023-05-10T03:11:01.878Z,4.93
2023-05-10T03:11:40.920Z,4.93
2023-05-10T03:12:24.635Z,4.94
2023-05-10T03:13:20.973Z,4.93
2023-05-10T03:13:54.102Z,4.94
2023-05-10T03:14:44.874Z,4.94
2023-05-10T03:15:26.398Z,4.95
2023-05-10T03:16:06.161Z,4.96
2023-05-10T03:16:53.734Z,4.96
2023-05-10T03:17:36.126Z,4.97
2023-05-10T03:18:12.248Z,4.98
2023-05-10T03:18:49.360Z,4.97
2023-05-10T03:19:28.797Z,4.98
2023-05-10T03:20:05.794Z,4.98
2023-05-10T03:20:48.478Z,4.98
2023-05-10T03:21:24.256Z,4.99
2023-05-10T03:21:59.946Z,5.00
2023-05-10T03:22:35.898Z,5.00
2023-05-10T03:23:12.593Z,5.00
2023-05-10T03:23:49.326Z,5.01
2023-05-10T03:24:24.476Z,5.02
2023-05-10T03:25:00.938Z,5.02
2023-05-10T03:25:34.681Z,5.02
2023-05-10T03:26:08.757Z,5.03
2023-05-10T03:26:44.731Z,5.04
2023-05-10T03:27:18.559Z,5.04
2023-05-10T03:27:53.244Z,5.05
2023-05-10T03:28:27.276Z,5.04
2023-05-10T03:29:00.914Z,5.05
2023-05-10T03:29:34.453Z,5.05
2023-05-10T03:30:09.972Z,5.05
2023-05-10T03:30:44.440Z,5.05
2023-05-10T03:31:18.393Z,5.06
2023-05-10T03:31:51.529Z,5.06
2023-05-10T03:32:24.915Z,5.06
2023-05-10T03:32:58.301Z,5.06
2023-05-10T03:33:31.584Z,5.07
2023-05-10T03:34:04.755Z,5.07
2023-05-10T03:34:42.321Z,5.07
2023-05-10T03:35:15.519Z,5.09
2023-05-10T03:35:49.044Z,5.09
2023-05-10T03:36:22.212Z,5.10
2023-05-10T03:36:55.387Z,5.10
2023-05-10T03:37:28.572Z,5.10
2023-05-10T03:38:02.061Z,5.11
2023-05-10T03:38:35.309Z,5.12
2023-05-10T03:39:08.543Z,5.12
2023-05-10T03:39:41.823Z,5.12
2023-05-10T03:40:15.320Z,5.13
2023-05-10T03:40:48.571Z,5.12
2023-05-10T03:41:21.902Z,5.13
2023-05-10T03:41:55.077Z,5.13
2023-05-10T03:42:28.467Z,5.13
2023-05-10T03:43:01.654Z,5.13
2023-05-10T03:43:35.116Z,5.14
2023-05-10T03:44:08.219Z,5.14
2023-05-10T03:44:41.455Z,5.14
2023-05-10T03:45:14.959Z,5.15
2023-05-10T03:45:48.025Z,5.15
2023-05-10T03:46:21.345Z,5.16
2023-05-10T03:46:54.543Z,5.17
2023-05-10T03:47:27.826Z,5.17
2023-05-10T03:48:01.278Z,5.19
2023-05-10T03:48:34.732Z,5.19
2023-05-10T03:49:07.788Z,5.19
2023-05-10T03:49:40.917Z,5.20
2023-05-10T03:50:14.320Z,5.21
2023-05-10T03:50:47.806Z,5.22
2023-05-10T03:51:21.523Z,5.22
2023-05-10T03:51:54.734Z,5.23
2023-05-10T03:52:27.768Z,5.24
2023-05-10T03:53:01.025Z,5.25
2023-05-10T03:53:34.210Z,5.25
2023-05-10T03:54:07.340Z,5.25
2023-05-10T03:54:40.378Z,5.27
2023-05-10T03:55:13.739Z,5.28
2023-05-10T03:55:47.334Z,5.29
2023-05-10T03:56:21.874Z,5.30
2023-05-10T03:56:54.997Z,5.30
2023-05-10T03:57:28.121Z,5.32
2023-05-10T03:58:01.310Z,5.32
2023-05-10T03:58:34.481Z,5.34
2023-05-10T03:59:10.720Z,5.34
2023-05-10T03:59:43.851Z,5.36
2023-05-10T04:00:17.694Z,5.37
2023-05-10T04:00:52.141Z,5.39
2023-05-10T04:01:25.297Z,5.40
2023-05-10T04:01:58.504Z,5.41
2023-05-10T04:02:32.092Z,5.43
2023-05-10T04:03:05.552Z,5.44
2023-05-10T04:03:39.466Z,5.46
2023-05-10T04:04:12.947Z,5.47
2023-05-10T04:04:46.378Z,5.49
2023-05-10T04:05:19.593Z,5.51
2023-05-10T04:06:00.094Z,5.51
2023-05-10T04:06:33.494Z,5.53
2023-05-10T04:07:06.622Z,5.55
2023-05-10T04:07:39.783Z,5.58
2023-05-10T04:08:12.952Z,5.59
2023-05-10T04:08:46.415Z,5.61
2023-05-10T04:09:19.668Z,5.62
2023-05-10T04:09:53.497Z,5.63
2023-05-10T04:10:26.738Z,5.66
2023-05-10T04:11:07.126Z,5.67
2023-05-10T04:11:40.225Z,5.69
2023-05-10T04:12:13.483Z,5.72
2023-05-10T04:12:46.635Z,5.73
2023-05-10T04:13:20.268Z,5.75
2023-05-10T04:13:53.324Z,5.77
2023-05-10T04:14:26.579Z,5.79
2023-05-10T04:14:59.746Z,5.81
2023-05-10T04:15:32.986Z,5.83
2023-05-10T04:16:06.524Z,5.84
2023-05-10T04:16:39.846Z,5.86
2023-05-10T04:17:13.150Z,5.88
2023-05-10T04:17:46.572Z,5.89
2023-05-10T04:18:19.974Z,5.92
2023-05-10T04:18:53.165Z,5.94
2023-05-10T04:19:30.348Z,5.95
2023-05-10T04:20:04.833Z,5.97
2023-05-10T04:20:38.177Z,6.00
2023-05-10T04:21:14.771Z,6.02
2023-05-10T04:21:47.872Z,6.04
2023-05-10T04:22:21.304Z,6.06
2023-05-10T04:22:54.841Z,6.08
2023-05-10T04:23:28.434Z,6.10
2023-05-10T04:24:02.734Z,6.13
2023-05-10T04:24:35.992Z,6.15
2023-05-10T04:25:09.591Z,6.17
2023-05-10T04:25:42.838Z,6.20
2023-05-10T04:26:16.715Z,6.22
2023-05-10T04:26:49.901Z,6.24
2023-05-10T04:27:23.105Z,6.26
2023-05-10T04:27:56.282Z,6.29
2023-05-10T04:28:29.667Z,6.31
2023-05-10T04:29:03.689Z,6.33
2023-05-10T04:29:36.661Z,6.35
2023-05-10T04:30:10.041Z,6.38
2023-05-10T04:30:43.249Z,6.40
2023-05-10T04:31:16.425Z,6.42
2023-05-10T04:31:50.182Z,6.44
2023-05-10T04:32:23.461Z,6.48
2023-05-10T04:32:56.617Z,6.50
2023-05-10T04:33:30.051Z,6.52
2023-05-10T04:34:03.156Z,6.55
2023-05-10T04:34:36.363Z,6.58
2023-05-10T04:35:11.213Z,6.60
2023-05-10T04:35:45.871Z,6.63
2023-05-10T04:36:19.041Z,6.65
2023-05-10T04:36:52.134Z,6.67
2023-05-10T04:37:25.272Z,6.69
2023-05-10T04:37:58.487Z,6.73
2023-05-10T04:38:31.814Z,6.74
2023-05-10T04:39:05.421Z,6.76
2023-05-10T04:39:40.308Z,6.78
2023-05-10T04:40:15.593Z,6.80
2023-05-10T04:40:49.074Z,6.82
2023-05-10T04:41:22.249Z,6.84
2023-05-10T04:41:55.468Z,6.86
2023-05-10T04:42:28.721Z,6.88
2023-05-10T04:43:01.989Z,6.91
2023-05-10T04:43:35.369Z,6.93
2023-05-10T04:44:08.596Z,6.95
2023-05-10T04:44:42.069Z,6.97
2023-05-10T04:45:18.220Z,7.00
2023-05-10T04:45:51.537Z,7.02
2023-05-10T04:46:24.629Z,7.05
2023-05-10T04:46:57.867Z,7.07
2023-05-10T04:47:30.863Z,7.09
2023-05-10T04:48:04.165Z,7.12
2023-05-10T04:48:37.394Z,7.14
2023-05-10T04:49:10.492Z,7.17
2023-05-10T04:49:43.862Z,7.19
2023-05-10T04:50:17.230Z,7.22
2023-05-10T04:50:50.528Z,7.23
2023-05-10T04:51:23.571Z,7.26
2023-05-10T04:51:57.290Z,7.28
2023-05-10T04:52:30.435Z,7.30
2023-05-10T04:53:03.779Z,7.32
2023-05-10T04:53:37.056Z,7.34
2023-05-10T04:54:10.570Z,7.36
2023-05-10T04:54:43.593Z,7.38
2023-05-10T04:55:17.246Z,7.40
2023-05-10T04:55:50.557Z,7.42
2023-05-10T04:56:23.651Z,7.44
2023-05-10T04:56:56.701Z,7.46
2023-05-10T04:57:29.873Z,7.48
2023-05-10T04:58:03.993Z,7.50
2023-05-10T04:58:37.139Z,7.53
2023-05-10T04:59:10.225Z,7.54
2023-05-10T04:59:43.803Z,7.57
2023-05-10T05:00:17.285Z,7.58
2023-05-10T05:00:50.697Z,7.61
2023-05-10T05:01:24.414Z,7.63
2023-05-10T05:01:57.856Z,7.65
2023-05-10T05:02:31.930Z,7.67
2023-05-10T05:03:05.481Z,7.69
2023-05-10T05:03:38.755Z,7.71
2023-05-10T05:04:12.156Z,7.73
2023-05-10T05:04:45.511Z,7.74
2023-05-10T05:05:18.566Z,7.75
2023-05-10T05:05:51.723Z,7.77
2023-05-10T05:06:26.183Z,7.80
2023-05-10T05:06:59.394Z,7.81
2023-05-10T05:07:32.577Z,7.82
2023-05-10T05:08:05.815Z,7.85
2023-05-10T05:08:38.999Z,7.86
2023-05-10T05:09:12.090Z,7.88
2023-05-10T05:09:45.281Z,7.89
2023-05-10T05:10:18.806Z,7.92
2023-05-10T05:10:52.099Z,7.94
2023-05-10T05:11:25.109Z,7.97
2023-05-10T05:11:58.169Z,7.98
2023-05-10T05:12:31.345Z,8.00
2023-05-10T05:13:04.639Z,8.02
2023-05-10T05:13:38.420Z,8.04
2023-05-10T05:14:11.521Z,8.06
2023-05-10T05:14:44.607Z,8.09
2023-05-10T05:15:18.092Z,8.11
2023-05-10T05:15:51.274Z,8.14
2023-05-10T05:16:24.549Z,8.16
2023-05-10T05:16:57.812Z,8.19
2023-05-10T05:17:33.555Z,8.21
2023-05-10T05:18:06.743Z,8.24
2023-05-10T05:18:40.009Z,8.26
2023-05-10T05:19:13.137Z,8.28
2023-05-10T05:19:46.301Z,8.30
2023-05-10T05:20:20.134Z,8.33
2023-05-10T05:20:53.258Z,8.36
2023-05-10T05:21:28.085Z,8.38
2023-05-10T05:22:01.261Z,8.40
2023-05-10T05:22:34.368Z,8.43
2023-05-10T05:23:07.451Z,8.45
2023-05-10T05:23:40.845Z,8.47
2023-05-10T05:24:14.105Z,8.49
2023-05-10T05:24:47.629Z,8.51
2023-05-10T05:25:20.966Z,8.54
2023-05-10T05:25:54.774Z,8.56
2023-05-10T05:26:28.016Z,8.58
2023-05-10T05:27:01.952Z,8.60
2023-05-10T05:27:35.059Z,8.62
2023-05-10T05:28:08.125Z,8.64
2023-05-10T05:28:41.182Z,8.65
2023-05-10T05:29:14.252Z,8.67
2023-05-10T05:29:47.380Z,8.70
2023-05-10T05:30:20.596Z,8.71
2023-05-10T05:30:54.229Z,8.73
2023-05-10T05:31:27.586Z,8.75
2023-05-10T05:32:01.062Z,8.77
2023-05-10T05:32:34.295Z,8.79
2023-05-10T05:33:07.548Z,8.81
2023-05-10T05:33:40.752Z,8.83
2023-05-10T05:34:13.945Z,8.85
2023-05-10T05:34:47.152Z,8.87
2023-05-10T05:35:20.285Z,8.89
2023-05-10T05:35:53.727Z,8.92
2023-05-10T05:36:26.949Z,8.94
2023-05-10T05:37:00.028Z,8.97
2023-05-10T05:37:33.275Z,8.99
2023-05-10T05:38:07.263Z,9.02
2023-05-10T05:38:40.359Z,9.04
2023-05-10T05:39:13.502Z,9.06
2023-05-10T05:39:46.877Z,9.09
2023-05-10T05:40:20.028Z,9.11
2023-05-10T05:40:53.310Z,9.13
2023-05-10T05:41:26.520Z,9.16
2023-05-10T05:41:59.854Z,9.19
2023-05-10T05:42:33.208Z,9.21
2023-05-10T05:43:06.399Z,9.24
2023-05-10T05:43:39.584Z,9.27
2023-05-10T05:44:12.723Z,9.29
2023-05-10T05:44:46.048Z,9.33
2023-05-10T05:45:19.553Z,9.35
2023-05-10T05:45:56.273Z,9.38
2023-05-10T05:46:29.425Z,9.40
2023-05-10T05:47:03.035Z,9.42
2023-05-10T05:47:36.087Z,9.44
2023-05-10T05:48:09.364Z,9.46
2023-05-10T05:48:42.512Z,9.48
2023-05-10T05:49:15.791Z,9.51
2023-05-10T05:49:48.864Z,9.54
2023-05-10T05:50:22.087Z,9.56
2023-05-10T05:50:56.664Z,9.58
2023-05-10T05:51:30.054Z,9.60
2023-05-10T05:52:03.704Z,9.62
2023-05-10T05:52:37.272Z,9.65
2023-05-10T05:53:11.134Z,9.67
2023-05-10T05:53:44.325Z,9.69
2023-05-10T05:54:17.549Z,9.71
2023-05-10T05:54:50.722Z,9.74
2023-05-10T05:55:25.265Z,9.76
2023-05-10T05:55:59.126Z,9.79
2023-05-10T05:56:32.193Z,9.81
2023-05-10T05:57:05.736Z,9.83
2023-05-10T05:57:39.054Z,9.86
2023-05-10T05:58:12.489Z,9.87
2023-05-10T05:58:45.952Z,9.91
2023-05-10T05:59:19.056Z,9.94
2023-05-10T05:59:52.096Z,9.96
2023-05-10T06:00:25.334Z,9.98
2023-05-10T06:00:58.616Z,10.01
2023-05-10T06:01:31.843Z,10.03
2023-05-10T06:02:05.078Z,10.05
2023-05-10T06:02:38.410Z,10.09
2023-05-10T06:03:11.913Z,10.11
2023-05-10T06:03:44.975Z,10.14
2023-05-10T06:04:18.449Z,10.16
2023-05-10T06:04:51.761Z,10.19
2023-05-10T06:05:24.988Z,10.22
2023-05-10T06:05:58.316Z,10.25
2023-05-10T06:06:31.632Z,10.28
2023-05-10T06:07:04.981Z,10.31
2023-05-10T06:07:38.164Z,10.34
2023-05-10T06:08:11.427Z,10.35
2023-05-10T06:08:44.629Z,10.39
2023-05-10T06:09:17.704Z,10.41
2023-05-10T06:09:50.988Z,10.44
2023-05-10T06:10:24.038Z,10.47
2023-05-10T06:10:57.379Z,10.49
2023-05-10T06:11:31.758Z,10.51
2023-05-10T06:12:04.938Z,10.55
2023-05-10T06:12:37.987Z,10.58
2023-05-10T06:13:11.278Z,10.59
2023-05-10T06:13:44.545Z,10.62
2023-05-10T06:14:17.620Z,10.64
2023-05-10T06:14:50.729Z,10.67
2023-05-10T06:15:24.030Z,10.69
2023-05-10T06:15:57.069Z,10.71
2023-05-10T06:16:30.194Z,10.73
2023-05-10T06:17:05.371Z,10.76
2023-05-10T06:17:40.000Z,10.77
2023-05-10T06:18:13.059Z,10.80
2023-05-10T06:18:46.345Z,10.82
2023-05-10T06:19:19.500Z,10.84
2023-05-10T06:19:52.649Z,10.87
2023-05-10T06:20:26.198Z,10.89
2023-05-10T06:20:59.124Z,10.92
2023-05-10T06:21:32.362Z,10.95
2023-05-10T06:22:05.641Z,10.97
2023-05-10T06:22:38.713Z,11.00
2023-05-10T06:23:12.297Z,11.02
2023-05-10T06:23:45.725Z,11.04
2023-05-10T06:24:18.929Z,11.07
2023-05-10T06:24:52.114Z,11.09
2023-05-10T06:25:25.517Z,11.11
2023-05-10T06:25:58.833Z,11.13
2023-05-10T06:26:32.202Z,11.16
2023-05-10T06:27:05.645Z,11.18
2023-05-10T06:27:38.758Z,11.20
2023-05-10T06:28:11.884Z,11.23
2023-05-10T06:28:44.886Z,11.26
2023-05-10T06:29:18.067Z,11.28
2023-05-10T06:29:56.368Z,11.31
2023-05-10T06:30:32.380Z,11.34
2023-05-10T06:31:06.197Z,11.36
2023-05-10T06:31:39.372Z,11.38
2023-05-10T06:32:12.588Z,11.40
2023-05-10T06:32:46.649Z,11.43
2023-05-10T06:33:19.939Z,11.45
2023-05-10T06:33:54.208Z,11.46
2023-05-10T06:34:29.188Z,11.48
2023-05-10T06:35:02.282Z,11.50
2023-05-10T06:35:35.305Z,11.52
2023-05-10T06:36:08.521Z,11.54
2023-05-10T06:36:42.289Z,11.55
2023-05-10T06:37:15.507Z,11.58
2023-05-10T06:37:48.718Z,11.60
2023-05-10T06:38:22.069Z,11.62
2023-05-10T06:38:55.321Z,11.64
2023-05-10T06:39:29.941Z,11.66
2023-05-10T06:40:03.157Z,11.67
2023-05-10T06:40:37.152Z,11.70
2023-05-10T06:41:10.398Z,11.72
2023-05-10T06:41:43.480Z,11.73
2023-05-10T06:42:16.586Z,11.74
2023-05-10T06:42:49.703Z,11.77
2023-05-10T06:43:23.037Z,11.78
2023-05-10T06:43:56.218Z,11.80
2023-05-10T06:44:29.366Z,11.83
2023-05-10T06:45:02.523Z,11.84
2023-05-10T06:45:35.834Z,11.87
2023-05-10T06:46:08.950Z,11.89
2023-05-10T06:46:42.970Z,11.91
2023-05-10T06:47:16.278Z,11.93
2023-05-10T06:47:49.720Z,11.95
2023-05-10T06:48:23.068Z,11.98
2023-05-10T06:48:56.368Z,11.99
2023-05-10T06:49:29.526Z,12.01
2023-05-10T06:50:02.865Z,12.04
2023-05-10T06:50:36.304Z,12.05
2023-05-10T06:51:09.375Z,12.06
2023-05-10T06:51:42.549Z,12.07
2023-05-10T06:52:15.728Z,12.09
2023-05-10T06:52:49.529Z,12.10
2023-05-10T06:53:23.729Z,12.12
2023-05-10T06:53:56.921Z,12.13
2023-05-10T06:54:30.216Z,12.14
2023-05-10T06:55:04.755Z,12.16
2023-05-10T06:55:38.175Z,12.17
2023-05-10T06:56:11.388Z,12.19
2023-05-10T06:56:44.617Z,12.20
2023-05-10T06:57:30.539Z,12.22
2023-05-10T06:58:05.589Z,12.24
2023-05-10T06:58:39.368Z,12.26
2023-05-10T06:59:13.764Z,12.28
2023-05-10T06:59:46.771Z,12.29
2023-05-10T07:00:20.529Z,12.31
2023-05-10T07:00:54.071Z,12.33
2023-05-10T07:01:27.235Z,12.36
2023-05-10T07:02:00.386Z,12.37
2023-05-10T07:02:33.735Z,12.39
2023-05-10T07:03:07.448Z,12.41
2023-05-10T07:03:40.721Z,12.43
2023-05-10T07:04:14.850Z,12.44
2023-05-10T07:04:48.380Z,12.46
2023-05-10T07:05:21.948Z,12.47
2023-05-10T07:05:56.320Z,12.49
2023-05-10T07:06:33.847Z,12.51
2023-05-10T07:07:07.182Z,12.52
2023-05-10T07:07:40.848Z,12.54
2023-05-10T07:08:14.652Z,12.56
2023-05-10T07:08:47.898Z,12.57
2023-05-10T07:09:20.994Z,12.58
2023-05-10T07:09:54.368Z,12.60
2023-05-10T07:10:27.822Z,12.61
2023-05-10T07:11:04.667Z,12.63
2023-05-10T07:11:38.645Z,12.65
2023-05-10T07:12:14.185Z,12.66
2023-05-10T07:12:48.261Z,12.69
2023-05-10T07:13:21.604Z,12.70
2023-05-10T07:13:54.903Z,12.70
2023-05-10T07:14:28.097Z,12.71
2023-05-10T07:15:01.129Z,12.73
2023-05-10T07:15:34.667Z,12.73
2023-05-10T07:16:08.934Z,12.75
2023-05-10T07:16:42.273Z,12.77
2023-05-10T07:17:15.621Z,12.78
2023-05-10T07:17:48.621Z,12.79
2023-05-10T07:18:21.942Z,12.81
2023-05-10T07:18:55.136Z,12.83
2023-05-10T07:19:28.502Z,12.84
2023-05-10T07:20:01.915Z,12.85
2023-05-10T07:20:35.070Z,12.87
2023-05-10T07:21:08.204Z,12.88
2023-05-10T07:21:43.767Z,12.90
2023-05-10T07:22:17.919Z,12.93
2023-05-10T07:22:51.074Z,12.94
2023-05-10T07:23:24.025Z,12.96
2023-05-10T07:23:57.260Z,12.98
2023-05-10T07:24:31.006Z,13.00
2023-05-10T07:25:04.369Z,13.02
2023-05-10T07:25:37.671Z,13.03
2023-05-10T07:26:11.347Z,13.05
2023-05-10T07:26:44.611Z,13.08
2023-05-10T07:27:17.741Z,13.10
2023-05-10T07:27:52.193Z,13.11
2023-05-10T07:28:25.457Z,13.12
2023-05-10T07:28:58.637Z,13.14
2023-05-10T07:29:31.888Z,13.15
2023-05-10T07:30:05.376Z,13.16
2023-05-10T07:30:38.646Z,13.19
2023-05-10T07:31:11.723Z,13.20
2023-05-10T07:31:44.870Z,13.22
2023-05-10T07:32:18.234Z,13.24
2023-05-10T07:32:51.408Z,13.25
2023-05-10T07:33:24.661Z,13.27